sensor_id;sensor_type;location;lat;lon;timestamp;temperature;humidity
32394;DHT22;18853;45.426;9.206;2023-06-04T00:00:06;27.80;48.40
32394;DHT22;18853;45.426;9.206;2023-06-04T00:02:33;27.80;48.50
32394;DHT22;18853;45.426;9.206;2023-06-04T00:04:59;27.80;48.50
32394;DHT22;18853;45.426;9.206;2023-06-04T00:07:25;27.80;48.50
32394;DHT22;18853;45.426;9.206;2023-06-04T00:09:52;27.70;48.60
32394;DHT22;18853;45.426;9.206;2023-06-04T00:12:17;27.70;48.60
32394;DHT22;18853;45.426;9.206;2023-06-04T00:14:43;27.70;48.70
32394;DHT22;18853;45.426;9.206;2023-06-04T00:17:09;27.60;48.90
32394;DHT22;18853;45.426;9.206;2023-06-04T00:19:37;27.60;48.70
32394;DHT22;18853;45.426;9.206;2023-06-04T00:22:03;27.70;48.80
32394;DHT22;18853;45.426;9.206;2023-06-04T00:24:29;27.60;48.80
32394;DHT22;18853;45.426;9.206;2023-06-04T00:26:55;27.60;48.90
32394;DHT22;18853;45.426;9.206;2023-06-04T00:29:20;27.50;49.20
32394;DHT22;18853;45.426;9.206;2023-06-04T00:31:46;27.50;49.20
32394;DHT22;18853;45.426;9.206;2023-06-04T00:34:12;27.40;49.10
32394;DHT22;18853;45.426;9.206;2023-06-04T00:36:38;27.40;49.20
32394;DHT22;18853;45.426;9.206;2023-06-04T00:39:04;27.30;49.00
32394;DHT22;18853;45.426;9.206;2023-06-04T00:41:30;27.30;49.00
32394;DHT22;18853;45.426;9.206;2023-06-04T00:43:55;27.30;49.00
32394;DHT22;18853;45.426;9.206;2023-06-04T00:46:25;27.20;48.90
32394;DHT22;18853;45.426;9.206;2023-06-04T00:48:52;27.20;48.90
32394;DHT22;18853;45.426;9.206;2023-06-04T00:51:19;27.20;48.80
32394;DHT22;18853;45.426;9.206;2023-06-04T00:53:46;27.20;48.80
32394;DHT22;18853;45.426;9.206;2023-06-04T00:56:12;27.10;48.90
32394;DHT22;18853;45.426;9.206;2023-06-04T00:58:39;27.10;48.90
32394;DHT22;18853;45.426;9.206;2023-06-04T01:01:15;27.10;48.90
32394;DHT22;18853;45.426;9.206;2023-06-04T01:03:47;27.10;49.10
32394;DHT22;18853;45.426;9.206;2023-06-04T01:06:21;27.00;49.10
32394;DHT22;18853;45.426;9.206;2023-06-04T01:08:50;27.00;49.10
32394;DHT22;18853;45.426;9.206;2023-06-04T01:11:34;27.00;49.10
32394;DHT22;18853;45.426;9.206;2023-06-04T01:14:00;27.00;49.30
32394;DHT22;18853;45.426;9.206;2023-06-04T01:16:28;26.90;49.20
32394;DHT22;18853;45.426;9.206;2023-06-04T01:18:58;26.90;49.30
32394;DHT22;18853;45.426;9.206;2023-06-04T01:21:26;26.90;49.40
32394;DHT22;18853;45.426;9.206;2023-06-04T01:23:54;26.90;49.60
32394;DHT22;18853;45.426;9.206;2023-06-04T01:26:31;26.80;49.70
32394;DHT22;18853;45.426;9.206;2023-06-04T01:28:58;26.80;50.00
32394;DHT22;18853;45.426;9.206;2023-06-04T01:31:25;26.80;50.10
32394;DHT22;18853;45.426;9.206;2023-06-04T01:33:55;26.80;50.20
32394;DHT22;18853;45.426;9.206;2023-06-04T01:36:23;26.80;50.30
32394;DHT22;18853;45.426;9.206;2023-06-04T01:38:49;26.70;50.30
32394;DHT22;18853;45.426;9.206;2023-06-04T01:41:15;26.70;50.20
32394;DHT22;18853;45.426;9.206;2023-06-04T01:43:41;26.70;50.20
32394;DHT22;18853;45.426;9.206;2023-06-04T01:46:07;26.70;50.30
32394;DHT22;18853;45.426;9.206;2023-06-04T01:48:33;26.70;50.30
32394;DHT22;18853;45.426;9.206;2023-06-04T01:50:58;26.60;50.30
32394;DHT22;18853;45.426;9.206;2023-06-04T01:53:24;26.60;50.20
32394;DHT22;18853;45.426;9.206;2023-06-04T01:55:50;26.60;50.30
32394;DHT22;18853;45.426;9.206;2023-06-04T01:58:16;26.60;50.40
32394;DHT22;18853;45.426;9.206;2023-06-04T02:00:53;26.60;50.20
32394;DHT22;18853;45.426;9.206;2023-06-04T02:03:20;26.50;50.20
32394;DHT22;18853;45.426;9.206;2023-06-04T02:05:47;26.50;50.20
32394;DHT22;18853;45.426;9.206;2023-06-04T02:08:17;26.50;50.50
32394;DHT22;18853;45.426;9.206;2023-06-04T02:10:46;26.40;50.50
32394;DHT22;18853;45.426;9.206;2023-06-04T02:13:13;26.40;50.70
32394;DHT22;18853;45.426;9.206;2023-06-04T02:15:38;26.40;50.50
32394;DHT22;18853;45.426;9.206;2023-06-04T02:18:17;26.40;50.50
32394;DHT22;18853;45.426;9.206;2023-06-04T02:20:47;26.40;50.70
32394;DHT22;18853;45.426;9.206;2023-06-04T02:23:15;26.30;50.70
32394;DHT22;18853;45.426;9.206;2023-06-04T02:25:41;26.30;50.80
32394;DHT22;18853;45.426;9.206;2023-06-04T02:28:10;26.30;50.80
32394;DHT22;18853;45.426;9.206;2023-06-04T02:30:36;26.30;50.90
32394;DHT22;18853;45.426;9.206;2023-06-04T02:33:01;26.30;51.00
32394;DHT22;18853;45.426;9.206;2023-06-04T02:35:28;26.30;51.00
32394;DHT22;18853;45.426;9.206;2023-06-04T02:37:54;26.30;51.10
32394;DHT22;18853;45.426;9.206;2023-06-04T02:40:22;26.20;51.20
32394;DHT22;18853;45.426;9.206;2023-06-04T02:42:47;26.20;51.30
32394;DHT22;18853;45.426;9.206;2023-06-04T02:45:13;26.20;51.30
32394;DHT22;18853;45.426;9.206;2023-06-04T02:47:38;26.20;51.40
32394;DHT22;18853;45.426;9.206;2023-06-04T02:50:05;26.20;51.50
32394;DHT22;18853;45.426;9.206;2023-06-04T02:52:30;26.10;51.40
32394;DHT22;18853;45.426;9.206;2023-06-04T02:54:58;26.10;51.40
32394;DHT22;18853;45.426;9.206;2023-06-04T02:57:24;26.10;51.40
32394;DHT22;18853;45.426;9.206;2023-06-04T02:59:49;26.10;51.50
32394;DHT22;18853;45.426;9.206;2023-06-04T03:02:15;26.10;51.60
32394;DHT22;18853;45.426;9.206;2023-06-04T03:04:43;26.20;51.40
32394;DHT22;18853;45.426;9.206;2023-06-04T03:07:10;26.20;51.40
32394;DHT22;18853;45.426;9.206;2023-06-04T03:09:37;26.10;51.40
32394;DHT22;18853;45.426;9.206;2023-06-04T03:12:03;26.10;51.40
32394;DHT22;18853;45.426;9.206;2023-06-04T03:14:29;26.20;51.50
32394;DHT22;18853;45.426;9.206;2023-06-04T03:17:02;26.10;52.10
32394;DHT22;18853;45.426;9.206;2023-06-04T03:19:40;26.10;51.30
32394;DHT22;18853;45.426;9.206;2023-06-04T03:22:07;26.10;51.40
32394;DHT22;18853;45.426;9.206;2023-06-04T03:24:40;26.10;51.50
32394;DHT22;18853;45.426;9.206;2023-06-04T03:27:07;26.10;51.70
32394;DHT22;18853;45.426;9.206;2023-06-04T03:29:34;26.00;51.60
32394;DHT22;18853;45.426;9.206;2023-06-04T03:32:01;26.00;51.70
32394;DHT22;18853;45.426;9.206;2023-06-04T03:34:27;26.00;51.70
32394;DHT22;18853;45.426;9.206;2023-06-04T03:36:53;26.00;51.70
32394;DHT22;18853;45.426;9.206;2023-06-04T03:39:19;26.00;51.70
32394;DHT22;18853;45.426;9.206;2023-06-04T03:41:45;26.00;51.70
32394;DHT22;18853;45.426;9.206;2023-06-04T03:44:17;26.00;51.80
32394;DHT22;18853;45.426;9.206;2023-06-04T03:46:44;26.00;51.80
32394;DHT22;18853;45.426;9.206;2023-06-04T03:49:10;26.00;51.90
32394;DHT22;18853;45.426;9.206;2023-06-04T03:51:39;26.00;51.80
32394;DHT22;18853;45.426;9.206;2023-06-04T03:54:05;26.00;51.90
32394;DHT22;18853;45.426;9.206;2023-06-04T03:56:31;26.00;51.80
32394;DHT22;18853;45.426;9.206;2023-06-04T03:58:57;26.00;51.60
32394;DHT22;18853;45.426;9.206;2023-06-04T04:01:23;26.00;51.60
32394;DHT22;18853;45.426;9.206;2023-06-04T04:03:49;26.00;51.60
32394;DHT22;18853;45.426;9.206;2023-06-04T04:06:16;26.00;51.50
32394;DHT22;18853;45.426;9.206;2023-06-04T04:08:42;26.00;51.50
32394;DHT22;18853;45.426;9.206;2023-06-04T04:11:18;26.00;51.50
32394;DHT22;18853;45.426;9.206;2023-06-04T04:13:45;26.00;51.40
32394;DHT22;18853;45.426;9.206;2023-06-04T04:16:12;26.00;51.10
32394;DHT22;18853;45.426;9.206;2023-06-04T04:18:37;26.00;51.10
32394;DHT22;18853;45.426;9.206;2023-06-04T04:21:04;26.00;51.10
32394;DHT22;18853;45.426;9.206;2023-06-04T04:23:30;26.00;50.90
32394;DHT22;18853;45.426;9.206;2023-06-04T04:25:58;26.00;50.50
32394;DHT22;18853;45.426;9.206;2023-06-04T04:28:27;26.00;50.20
32394;DHT22;18853;45.426;9.206;2023-06-04T04:30:57;26.00;50.30
32394;DHT22;18853;45.426;9.206;2023-06-04T04:33:25;26.00;50.10
32394;DHT22;18853;45.426;9.206;2023-06-04T04:35:51;26.00;50.10
32394;DHT22;18853;45.426;9.206;2023-06-04T04:38:20;26.10;50.20
32394;DHT22;18853;45.426;9.206;2023-06-04T04:40:49;26.00;50.10
32394;DHT22;18853;45.426;9.206;2023-06-04T04:43:27;26.00;50.10
32394;DHT22;18853;45.426;9.206;2023-06-04T04:45:53;26.00;50.00
32394;DHT22;18853;45.426;9.206;2023-06-04T04:48:19;26.00;50.10
32394;DHT22;18853;45.426;9.206;2023-06-04T04:50:44;26.00;50.10
32394;DHT22;18853;45.426;9.206;2023-06-04T04:53:10;26.00;50.20
32394;DHT22;18853;45.426;9.206;2023-06-04T04:55:36;26.00;50.40
32394;DHT22;18853;45.426;9.206;2023-06-04T04:58:01;26.00;50.50
32394;DHT22;18853;45.426;9.206;2023-06-04T05:00:28;26.00;50.60
32394;DHT22;18853;45.426;9.206;2023-06-04T05:02:54;26.00;50.50
32394;DHT22;18853;45.426;9.206;2023-06-04T05:05:20;26.00;50.60
32394;DHT22;18853;45.426;9.206;2023-06-04T05:07:45;26.00;50.70
32394;DHT22;18853;45.426;9.206;2023-06-04T05:10:11;26.00;50.70
32394;DHT22;18853;45.426;9.206;2023-06-04T05:12:38;26.00;50.70
32394;DHT22;18853;45.426;9.206;2023-06-04T05:15:04;26.00;50.70
32394;DHT22;18853;45.426;9.206;2023-06-04T05:17:30;26.00;50.70
32394;DHT22;18853;45.426;9.206;2023-06-04T05:19:56;26.00;50.50
32394;DHT22;18853;45.426;9.206;2023-06-04T05:22:37;26.00;50.50
32394;DHT22;18853;45.426;9.206;2023-06-04T05:25:03;26.00;50.50
32394;DHT22;18853;45.426;9.206;2023-06-04T05:27:29;26.00;50.70
32394;DHT22;18853;45.426;9.206;2023-06-04T05:29:57;26.00;50.70
32394;DHT22;18853;45.426;9.206;2023-06-04T05:32:23;26.00;50.70
32394;DHT22;18853;45.426;9.206;2023-06-04T05:34:49;26.00;51.00
32394;DHT22;18853;45.426;9.206;2023-06-04T05:37:15;25.90;50.90
32394;DHT22;18853;45.426;9.206;2023-06-04T05:39:43;26.00;50.70
32394;DHT22;18853;45.426;9.206;2023-06-04T05:42:09;26.00;50.80
32394;DHT22;18853;45.426;9.206;2023-06-04T05:44:35;26.00;50.70
32394;DHT22;18853;45.426;9.206;2023-06-04T05:47:00;26.00;50.60
32394;DHT22;18853;45.426;9.206;2023-06-04T05:49:26;26.00;50.50
32394;DHT22;18853;45.426;9.206;2023-06-04T05:51:52;26.00;50.30
32394;DHT22;18853;45.426;9.206;2023-06-04T05:54:18;26.00;50.10
32394;DHT22;18853;45.426;9.206;2023-06-04T05:56:44;26.00;50.00
32394;DHT22;18853;45.426;9.206;2023-06-04T05:59:10;25.90;49.90
32394;DHT22;18853;45.426;9.206;2023-06-04T06:01:35;25.90;50.00
32394;DHT22;18853;45.426;9.206;2023-06-04T06:04:01;25.90;50.10
32394;DHT22;18853;45.426;9.206;2023-06-04T06:06:27;25.90;50.30
32394;DHT22;18853;45.426;9.206;2023-06-04T06:08:53;26.00;50.60
32394;DHT22;18853;45.426;9.206;2023-06-04T06:11:19;26.00;50.70
32394;DHT22;18853;45.426;9.206;2023-06-04T06:13:46;26.00;50.80
32394;DHT22;18853;45.426;9.206;2023-06-04T06:16:12;26.00;50.80
32394;DHT22;18853;45.426;9.206;2023-06-04T06:18:37;26.00;50.80
32394;DHT22;18853;45.426;9.206;2023-06-04T06:21:03;26.10;51.10
32394;DHT22;18853;45.426;9.206;2023-06-04T06:23:29;26.10;50.90
32394;DHT22;18853;45.426;9.206;2023-06-04T06:25:54;26.10;50.70
32394;DHT22;18853;45.426;9.206;2023-06-04T06:28:20;26.00;50.40
32394;DHT22;18853;45.426;9.206;2023-06-04T06:30:46;26.00;50.40
32394;DHT22;18853;45.426;9.206;2023-06-04T06:33:13;26.10;50.10
32394;DHT22;18853;45.426;9.206;2023-06-04T06:35:39;26.10;49.40
32394;DHT22;18853;45.426;9.206;2023-06-04T06:38:05;26.00;48.90
32394;DHT22;18853;45.426;9.206;2023-06-04T06:40:30;26.00;48.80
32394;DHT22;18853;45.426;9.206;2023-06-04T06:42:56;26.00;48.80
32394;DHT22;18853;45.426;9.206;2023-06-04T06:45:22;26.10;48.90
32394;DHT22;18853;45.426;9.206;2023-06-04T06:47:48;26.00;48.80
32394;DHT22;18853;45.426;9.206;2023-06-04T06:50:13;26.00;48.30
32394;DHT22;18853;45.426;9.206;2023-06-04T06:52:39;25.90;48.40
32394;DHT22;18853;45.426;9.206;2023-06-04T06:55:05;25.90;48.20
32394;DHT22;18853;45.426;9.206;2023-06-04T06:57:32;25.90;48.30
32394;DHT22;18853;45.426;9.206;2023-06-04T06:59:59;25.90;48.30
32394;DHT22;18853;45.426;9.206;2023-06-04T07:02:25;26.00;48.50
32394;DHT22;18853;45.426;9.206;2023-06-04T07:04:51;26.00;48.60
32394;DHT22;18853;45.426;9.206;2023-06-04T07:07:16;26.00;48.50
32394;DHT22;18853;45.426;9.206;2023-06-04T07:09:42;26.00;48.70
32394;DHT22;18853;45.426;9.206;2023-06-04T07:12:08;26.00;48.70
32394;DHT22;18853;45.426;9.206;2023-06-04T07:14:34;26.10;48.90
32394;DHT22;18853;45.426;9.206;2023-06-04T07:17:00;26.10;49.10
32394;DHT22;18853;45.426;9.206;2023-06-04T07:19:26;26.20;49.10
32394;DHT22;18853;45.426;9.206;2023-06-04T07:21:54;26.20;48.90
32394;DHT22;18853;45.426;9.206;2023-06-04T07:24:21;26.30;48.80
32394;DHT22;18853;45.426;9.206;2023-06-04T07:26:47;26.30;48.70
32394;DHT22;18853;45.426;9.206;2023-06-04T07:29:13;26.30;48.70
32394;DHT22;18853;45.426;9.206;2023-06-04T07:31:39;26.30;48.70
32394;DHT22;18853;45.426;9.206;2023-06-04T07:34:05;26.30;48.50
32394;DHT22;18853;45.426;9.206;2023-06-04T07:36:30;26.40;48.60
32394;DHT22;18853;45.426;9.206;2023-06-04T07:38:56;26.50;48.80
32394;DHT22;18853;45.426;9.206;2023-06-04T07:41:22;26.60;48.70
32394;DHT22;18853;45.426;9.206;2023-06-04T07:43:48;26.60;48.90
32394;DHT22;18853;45.426;9.206;2023-06-04T07:46:13;26.70;49.00
32394;DHT22;18853;45.426;9.206;2023-06-04T07:48:44;26.70;48.80
32394;DHT22;18853;45.426;9.206;2023-06-04T07:51:10;26.60;48.90
32394;DHT22;18853;45.426;9.206;2023-06-04T07:53:36;26.60;49.10
32394;DHT22;18853;45.426;9.206;2023-06-04T07:56:03;26.50;49.10
32394;DHT22;18853;45.426;9.206;2023-06-04T07:58:29;26.60;49.10
32394;DHT22;18853;45.426;9.206;2023-06-04T08:00:55;26.40;48.90
32394;DHT22;18853;45.426;9.206;2023-06-04T08:03:21;26.30;49.10
32394;DHT22;18853;45.426;9.206;2023-06-04T08:05:47;26.30;49.30
32394;DHT22;18853;45.426;9.206;2023-06-04T08:08:13;26.30;49.30
32394;DHT22;18853;45.426;9.206;2023-06-04T08:10:42;26.30;49.40
32394;DHT22;18853;45.426;9.206;2023-06-04T08:13:08;26.30;49.30
32394;DHT22;18853;45.426;9.206;2023-06-04T08:15:35;26.30;49.50
32394;DHT22;18853;45.426;9.206;2023-06-04T08:18:01;26.30;49.60
32394;DHT22;18853;45.426;9.206;2023-06-04T08:20:26;26.30;49.50
32394;DHT22;18853;45.426;9.206;2023-06-04T08:22:52;26.40;49.50
32394;DHT22;18853;45.426;9.206;2023-06-04T08:25:18;26.40;49.70
32394;DHT22;18853;45.426;9.206;2023-06-04T08:27:43;26.40;49.60
32394;DHT22;18853;45.426;9.206;2023-06-04T08:30:09;26.50;49.60
32394;DHT22;18853;45.426;9.206;2023-06-04T08:32:35;26.50;49.50
32394;DHT22;18853;45.426;9.206;2023-06-04T08:35:01;26.40;49.50
32394;DHT22;18853;45.426;9.206;2023-06-04T08:37:26;26.40;49.70
32394;DHT22;18853;45.426;9.206;2023-06-04T08:39:52;26.40;49.60
32394;DHT22;18853;45.426;9.206;2023-06-04T08:42:30;26.40;49.60
32394;DHT22;18853;45.426;9.206;2023-06-04T08:44:59;26.50;49.80
32394;DHT22;18853;45.426;9.206;2023-06-04T08:47:25;26.50;49.90
32394;DHT22;18853;45.426;9.206;2023-06-04T08:49:52;26.60;49.90
32394;DHT22;18853;45.426;9.206;2023-06-04T08:52:18;26.60;49.90
32394;DHT22;18853;45.426;9.206;2023-06-04T08:54:49;26.60;50.10
32394;DHT22;18853;45.426;9.206;2023-06-04T08:57:20;26.60;50.10
32394;DHT22;18853;45.426;9.206;2023-06-04T08:59:46;26.50;50.10
32394;DHT22;18853;45.426;9.206;2023-06-04T09:02:14;26.60;50.30
32394;DHT22;18853;45.426;9.206;2023-06-04T09:04:40;26.70;50.40
32394;DHT22;18853;45.426;9.206;2023-06-04T09:07:08;26.70;50.20
32394;DHT22;18853;45.426;9.206;2023-06-04T09:09:38;26.70;50.10
32394;DHT22;18853;45.426;9.206;2023-06-04T09:12:08;26.70;50.10
32394;DHT22;18853;45.426;9.206;2023-06-04T09:14:34;26.60;50.10
32394;DHT22;18853;45.426;9.206;2023-06-04T09:17:00;26.70;49.90
32394;DHT22;18853;45.426;9.206;2023-06-04T09:19:25;26.70;49.60
32394;DHT22;18853;45.426;9.206;2023-06-04T09:21:58;26.70;49.80
32394;DHT22;18853;45.426;9.206;2023-06-04T09:24:26;26.70;49.70
32394;DHT22;18853;45.426;9.206;2023-06-04T09:27:10;26.60;49.80
32394;DHT22;18853;45.426;9.206;2023-06-04T09:29:36;26.70;50.00
32394;DHT22;18853;45.426;9.206;2023-06-04T09:32:01;26.60;50.00
32394;DHT22;18853;45.426;9.206;2023-06-04T09:34:30;26.60;50.00
32394;DHT22;18853;45.426;9.206;2023-06-04T09:36:57;26.60;50.10
32394;DHT22;18853;45.426;9.206;2023-06-04T09:39:23;26.60;50.10
32394;DHT22;18853;45.426;9.206;2023-06-04T09:42:02;26.60;49.90
32394;DHT22;18853;45.426;9.206;2023-06-04T09:44:42;26.70;49.90
32394;DHT22;18853;45.426;9.206;2023-06-04T09:47:09;26.60;50.70
32394;DHT22;18853;45.426;9.206;2023-06-04T09:49:45;26.50;51.10
32394;DHT22;18853;45.426;9.206;2023-06-04T09:52:11;26.50;51.70
32394;DHT22;18853;45.426;9.206;2023-06-04T09:54:39;26.50;52.00
32394;DHT22;18853;45.426;9.206;2023-06-04T09:57:17;26.40;52.50
32394;DHT22;18853;45.426;9.206;2023-06-04T09:59:45;26.40;53.30
32394;DHT22;18853;45.426;9.206;2023-06-04T10:02:12;26.30;53.70
32394;DHT22;18853;45.426;9.206;2023-06-04T10:04:41;26.30;54.30
32394;DHT22;18853;45.426;9.206;2023-06-04T10:07:10;26.20;55.20
32394;DHT22;18853;45.426;9.206;2023-06-04T10:09:39;26.10;56.10
32394;DHT22;18853;45.426;9.206;2023-06-04T10:12:13;26.00;57.30
32394;DHT22;18853;45.426;9.206;2023-06-04T10:14:48;25.80;57.60
32394;DHT22;18853;45.426;9.206;2023-06-04T10:17:15;25.70;58.00
32394;DHT22;18853;45.426;9.206;2023-06-04T10:19:44;25.60;57.90
32394;DHT22;18853;45.426;9.206;2023-06-04T10:22:10;25.50;57.70
32394;DHT22;18853;45.426;9.206;2023-06-04T10:24:39;25.40;57.20
32394;DHT22;18853;45.426;9.206;2023-06-04T10:27:06;25.30;57.60
32394;DHT22;18853;45.426;9.206;2023-06-04T10:29:36;25.30;58.10
32394;DHT22;18853;45.426;9.206;2023-06-04T10:32:02;25.30;58.00
32394;DHT22;18853;45.426;9.206;2023-06-04T10:34:28;25.20;57.90
32394;DHT22;18853;45.426;9.206;2023-06-04T10:36:54;25.10;57.70
32394;DHT22;18853;45.426;9.206;2023-06-04T10:39:31;25.10;57.90
32394;DHT22;18853;45.426;9.206;2023-06-04T10:42:00;25.10;56.60
32394;DHT22;18853;45.426;9.206;2023-06-04T10:44:26;25.10;57.10
32394;DHT22;18853;45.426;9.206;2023-06-04T10:46:51;25.10;57.20
32394;DHT22;18853;45.426;9.206;2023-06-04T10:49:26;25.10;57.00
32394;DHT22;18853;45.426;9.206;2023-06-04T10:51:53;25.30;57.10
32394;DHT22;18853;45.426;9.206;2023-06-04T10:54:25;25.30;57.50
32394;DHT22;18853;45.426;9.206;2023-06-04T10:56:52;25.30;57.60
32394;DHT22;18853;45.426;9.206;2023-06-04T10:59:19;25.30;56.60
32394;DHT22;18853;45.426;9.206;2023-06-04T11:01:45;25.40;57.40
32394;DHT22;18853;45.426;9.206;2023-06-04T11:04:21;25.50;58.10
32394;DHT22;18853;45.426;9.206;2023-06-04T11:06:46;25.60;58.90
32394;DHT22;18853;45.426;9.206;2023-06-04T11:09:13;25.60;59.70
32394;DHT22;18853;45.426;9.206;2023-06-04T11:11:41;25.60;60.90
32394;DHT22;18853;45.426;9.206;2023-06-04T11:14:16;25.90;60.20
32394;DHT22;18853;45.426;9.206;2023-06-04T11:16:43;26.10;60.50
32394;DHT22;18853;45.426;9.206;2023-06-04T11:19:09;26.10;58.90
32394;DHT22;18853;45.426;9.206;2023-06-04T11:21:35;26.20;58.80
32394;DHT22;18853;45.426;9.206;2023-06-04T11:24:04;26.20;57.60
32394;DHT22;18853;45.426;9.206;2023-06-04T11:26:34;26.30;57.10
32394;DHT22;18853;45.426;9.206;2023-06-04T11:29:01;26.30;58.40
32394;DHT22;18853;45.426;9.206;2023-06-04T11:31:27;26.30;58.20
32394;DHT22;18853;45.426;9.206;2023-06-04T11:33:53;26.40;58.50
32394;DHT22;18853;45.426;9.206;2023-06-04T11:36:28;26.40;56.90
32394;DHT22;18853;45.426;9.206;2023-06-04T11:38:58;26.50;54.90
32394;DHT22;18853;45.426;9.206;2023-06-04T11:41:27;26.60;56.10
32394;DHT22;18853;45.426;9.206;2023-06-04T11:43:55;26.70;55.10
32394;DHT22;18853;45.426;9.206;2023-06-04T11:46:22;26.70;54.60
32394;DHT22;18853;45.426;9.206;2023-06-04T11:48:51;26.90;54.80
32394;DHT22;18853;45.426;9.206;2023-06-04T11:51:22;27.00;54.60
32394;DHT22;18853;45.426;9.206;2023-06-04T11:53:48;27.10;55.30
32394;DHT22;18853;45.426;9.206;2023-06-04T11:56:15;27.00;52.80
32394;DHT22;18853;45.426;9.206;2023-06-04T11:58:41;27.10;51.80
32394;DHT22;18853;45.426;9.206;2023-06-04T12:01:08;27.10;51.60
32394;DHT22;18853;45.426;9.206;2023-06-04T12:03:38;26.90;51.10
32394;DHT22;18853;45.426;9.206;2023-06-04T12:06:15;27.10;51.70
32394;DHT22;18853;45.426;9.206;2023-06-04T12:08:46;27.30;51.80
32394;DHT22;18853;45.426;9.206;2023-06-04T12:11:45;27.40;52.20
32394;DHT22;18853;45.426;9.206;2023-06-04T12:14:16;27.50;51.40
32394;DHT22;18853;45.426;9.206;2023-06-04T12:16:43;27.60;51.50
32394;DHT22;18853;45.426;9.206;2023-06-04T12:19:11;27.60;50.30
32394;DHT22;18853;45.426;9.206;2023-06-04T12:21:40;27.70;50.20
32394;DHT22;18853;45.426;9.206;2023-06-04T12:24:10;27.80;50.40
32394;DHT22;18853;45.426;9.206;2023-06-04T12:26:37;27.80;49.10
32394;DHT22;18853;45.426;9.206;2023-06-04T12:29:12;27.70;48.30
32394;DHT22;18853;45.426;9.206;2023-06-04T12:31:45;27.60;47.30
32394;DHT22;18853;45.426;9.206;2023-06-04T12:34:13;27.70;48.50
32394;DHT22;18853;45.426;9.206;2023-06-04T12:36:39;27.90;48.50
32394;DHT22;18853;45.426;9.206;2023-06-04T12:39:05;28.00;48.20
32394;DHT22;18853;45.426;9.206;2023-06-04T12:41:33;28.20;47.90
32394;DHT22;18853;45.426;9.206;2023-06-04T12:44:00;28.30;46.60
32394;DHT22;18853;45.426;9.206;2023-06-04T12:46:26;28.30;46.40
32394;DHT22;18853;45.426;9.206;2023-06-04T12:48:54;28.40;46.50
32394;DHT22;18853;45.426;9.206;2023-06-04T12:51:20;28.50;47.00
32394;DHT22;18853;45.426;9.206;2023-06-04T12:53:47;28.60;46.90
32394;DHT22;18853;45.426;9.206;2023-06-04T12:56:13;28.60;47.30
32394;DHT22;18853;45.426;9.206;2023-06-04T12:58:39;28.70;46.80
32394;DHT22;18853;45.426;9.206;2023-06-04T13:01:06;28.60;46.10
32394;DHT22;18853;45.426;9.206;2023-06-04T13:03:32;28.60;46.00
32394;DHT22;18853;45.426;9.206;2023-06-04T13:05:58;28.60;46.20
32394;DHT22;18853;45.426;9.206;2023-06-04T13:08:24;28.60;45.80
32394;DHT22;18853;45.426;9.206;2023-06-04T13:10:51;28.70;46.10
32394;DHT22;18853;45.426;9.206;2023-06-04T13:13:18;28.70;46.20
32394;DHT22;18853;45.426;9.206;2023-06-04T13:15:44;28.60;46.00
32394;DHT22;18853;45.426;9.206;2023-06-04T13:18:10;28.60;46.10
32394;DHT22;18853;45.426;9.206;2023-06-04T13:20:37;28.60;46.40
32394;DHT22;18853;45.426;9.206;2023-06-04T13:23:03;28.60;46.50
32394;DHT22;18853;45.426;9.206;2023-06-04T13:25:28;28.70;46.50
32394;DHT22;18853;45.426;9.206;2023-06-04T13:27:56;28.70;46.90
32394;DHT22;18853;45.426;9.206;2023-06-04T13:30:22;28.70;47.00
32394;DHT22;18853;45.426;9.206;2023-06-04T13:32:48;28.60;46.30
32394;DHT22;18853;45.426;9.206;2023-06-04T13:35:14;28.60;46.30
32394;DHT22;18853;45.426;9.206;2023-06-04T13:37:40;28.60;46.40
32394;DHT22;18853;45.426;9.206;2023-06-04T13:40:07;28.60;46.10
32394;DHT22;18853;45.426;9.206;2023-06-04T13:42:33;28.60;46.40
32394;DHT22;18853;45.426;9.206;2023-06-04T13:44:59;28.70;46.30
32394;DHT22;18853;45.426;9.206;2023-06-04T13:47:25;28.80;46.40
32394;DHT22;18853;45.426;9.206;2023-06-04T13:49:51;28.90;46.20
32394;DHT22;18853;45.426;9.206;2023-06-04T13:52:17;28.90;45.50
32394;DHT22;18853;45.426;9.206;2023-06-04T13:54:43;29.00;45.50
32394;DHT22;18853;45.426;9.206;2023-06-04T13:57:09;28.90;44.60
32394;DHT22;18853;45.426;9.206;2023-06-04T13:59:38;28.90;44.70
32394;DHT22;18853;45.426;9.206;2023-06-04T14:02:05;28.90;44.90
32394;DHT22;18853;45.426;9.206;2023-06-04T14:04:31;28.90;45.60
32394;DHT22;18853;45.426;9.206;2023-06-04T14:06:57;29.00;44.40
32394;DHT22;18853;45.426;9.206;2023-06-04T14:09:23;29.10;44.10
32394;DHT22;18853;45.426;9.206;2023-06-04T14:11:48;29.10;44.10
32394;DHT22;18853;45.426;9.206;2023-06-04T14:14:19;29.20;43.80
32394;DHT22;18853;45.426;9.206;2023-06-04T14:16:45;29.20;44.00
32394;DHT22;18853;45.426;9.206;2023-06-04T14:19:11;29.30;44.70
32394;DHT22;18853;45.426;9.206;2023-06-04T14:21:37;29.30;44.50
32394;DHT22;18853;45.426;9.206;2023-06-04T14:24:03;29.30;44.30
32394;DHT22;18853;45.426;9.206;2023-06-04T14:26:29;29.20;43.90
32394;DHT22;18853;45.426;9.206;2023-06-04T14:28:55;29.10;44.00
32394;DHT22;18853;45.426;9.206;2023-06-04T14:31:21;29.10;44.80
32394;DHT22;18853;45.426;9.206;2023-06-04T14:33:47;29.20;44.60
32394;DHT22;18853;45.426;9.206;2023-06-04T14:36:12;29.10;45.00
32394;DHT22;18853;45.426;9.206;2023-06-04T14:38:38;29.00;45.20
32394;DHT22;18853;45.426;9.206;2023-06-04T14:41:04;29.10;45.30
32394;DHT22;18853;45.426;9.206;2023-06-04T14:43:30;29.00;45.20
32394;DHT22;18853;45.426;9.206;2023-06-04T14:45:56;29.00;45.00
32394;DHT22;18853;45.426;9.206;2023-06-04T14:48:21;29.00;45.10
32394;DHT22;18853;45.426;9.206;2023-06-04T14:50:47;29.00;45.20
32394;DHT22;18853;45.426;9.206;2023-06-04T14:53:13;29.00;45.40
32394;DHT22;18853;45.426;9.206;2023-06-04T14:55:39;29.00;45.60
32394;DHT22;18853;45.426;9.206;2023-06-04T14:58:06;29.00;45.60
32394;DHT22;18853;45.426;9.206;2023-06-04T15:00:32;29.00;46.00
32394;DHT22;18853;45.426;9.206;2023-06-04T15:02:58;29.00;45.70
32394;DHT22;18853;45.426;9.206;2023-06-04T15:05:25;29.00;45.60
32394;DHT22;18853;45.426;9.206;2023-06-04T15:07:51;29.00;45.80
32394;DHT22;18853;45.426;9.206;2023-06-04T15:10:16;29.00;45.80
32394;DHT22;18853;45.426;9.206;2023-06-04T15:12:42;29.00;45.80
32394;DHT22;18853;45.426;9.206;2023-06-04T15:15:09;29.00;46.00
32394;DHT22;18853;45.426;9.206;2023-06-04T15:17:35;29.00;45.60
32394;DHT22;18853;45.426;9.206;2023-06-04T15:20:02;29.00;46.00
32394;DHT22;18853;45.426;9.206;2023-06-04T15:22:28;28.90;45.40
32394;DHT22;18853;45.426;9.206;2023-06-04T15:24:53;28.90;45.30
32394;DHT22;18853;45.426;9.206;2023-06-04T15:27:19;28.90;45.20
32394;DHT22;18853;45.426;9.206;2023-06-04T15:29:45;28.80;45.20